Time;durP1;ratioP1;P1;durP2;ratioP2;P2;SDS_P1;SDS_P2;PMS_P1;PMS_P2;Temp;Humidity;BMP_temperature;BMP_pressure;BME280_temperature;BME280_humidity;BME280_pressure;Samples;Min_cycle;Max_cycle;Signal;HPM_P1;HPM_P2
2022/11/05 00:10:22;;;;;;;2.13;1.75;;;16.90;67.20;;;;;;5052299;28;20660;-66
2022/11/05 00:18:16;;;;;;;3.97;1.92;;;16.80;67.10;;;;;;5052018;28;20178;-67
2022/11/05 00:20:41;;;;;;;1.92;1.70;;;16.70;67.10;;;;;;5053090;28;20179;-67
2022/11/05 00:25:54;;;;;;;3.13;1.77;;;16.80;67.10;;;;;;5052319;28;20178;-66
2022/11/05 00:28:20;;;;;;;1.60;1.50;;;16.70;67.00;;;;;;5052760;28;20179;-66
2022/11/05 00:30:45;;;;;;;3.35;1.77;;;16.70;67.30;;;;;;5052917;28;20175;-66
2022/11/05 00:33:11;;;;;;;2.45;1.90;;;16.70;67.10;;;;;;5051855;28;20174;-66
2022/11/05 00:35:36;;;;;;;2.90;1.65;;;16.70;67.00;;;;;;5052931;28;20202;-66
2022/11/05 00:38:02;;;;;;;1.80;1.67;;;16.70;67.10;;;;;;5052567;28;20175;-67
2022/11/05 00:40:28;;;;;;;1.73;1.63;;;16.70;67.10;;;;;;5052089;28;20175;-67
2022/11/05 00:45:38;;;;;;;2.58;2.00;;;16.70;67.10;;;;;;5052846;28;20325;-66
2022/11/05 00:50:48;;;;;;;2.22;1.70;;;16.70;67.20;;;;;;5052536;28;20683;-66
2022/11/05 00:53:14;;;;;;;2.05;1.75;;;16.70;67.20;;;;;;5051454;28;20263;-67
2022/11/05 00:55:43;;;;;;;1.85;1.67;;;16.60;67.30;;;;;;5052817;28;20179;-66
2022/11/05 00:58:12;;;;;;;1.65;1.55;;;16.60;67.20;;;;;;5052418;28;20186;-66
2022/11/05 01:00:41;;;;;;;1.55;1.38;;;16.60;67.20;;;;;;5053778;28;20183;-66
2022/11/05 01:03:08;;;;;;;1.95;1.80;;;16.60;67.30;;;;;;5056628;28;20297;-66
2022/11/05 01:05:38;;;;;;;2.28;1.80;;;16.60;67.30;;;;;;5056498;28;20253;-67
2022/11/05 01:08:04;;;;;;;3.30;1.50;;;16.60;67.20;;;;;;5054554;28;20179;-67
2022/11/05 01:10:29;;;;;;;1.98;1.75;;;16.60;67.20;;;;;;5056494;28;20171;-66
2022/11/05 01:12:55;;;;;;;2.75;1.63;;;16.60;67.30;;;;;;5056459;28;20689;-66
2022/11/05 01:15:21;;;;;;;2.50;1.95;;;16.60;67.30;;;;;;5055268;28;20628;-67
2022/11/05 01:17:46;;;;;;;2.67;2.08;;;16.60;67.30;;;;;;5056375;28;20293;-67
2022/11/05 01:20:12;;;;;;;2.53;1.85;;;16.60;67.30;;;;;;5056189;28;20209;-67
2022/11/05 01:22:37;;;;;;;1.80;1.70;;;16.50;67.20;;;;;;5055773;28;20178;-66
2022/11/05 01:25:03;;;;;;;1.90;1.60;;;16.50;67.20;;;;;;5056110;28;20626;-66
2022/11/05 01:27:29;;;;;;;3.35;2.00;;;16.50;67.20;;;;;;5056174;28;20194;-66
2022/11/05 01:29:55;;;;;;;2.35;1.77;;;16.50;67.20;;;;;;5055328;28;20265;-66
2022/11/05 01:32:20;;;;;;;1.73;1.63;;;16.50;68.00;;;;;;5055742;28;20261;-66
2022/11/05 01:34:46;;;;;;;1.73;1.63;;;16.50;67.20;;;;;;5055980;28;20203;-67
2022/11/05 01:37:12;;;;;;;1.85;1.50;;;16.50;67.20;;;;;;5054011;28;20186;-67
2022/11/05 01:39:38;;;;;;;2.92;1.85;;;16.50;67.20;;;;;;5056158;28;20178;-67
2022/11/05 01:42:10;;;;;;;1.60;1.50;;;16.50;67.20;;;;;;5055682;28;20182;-66
2022/11/05 01:44:52;;;;;;;2.05;1.52;;;16.50;67.20;;;;;;5053820;28;20171;-66
2022/11/05 01:47:34;;;;;;;1.85;1.75;;;16.50;67.20;;;;;;5055733;28;20185;-66
2022/11/05 01:50:25;;;;;;;2.85;1.73;;;16.50;67.20;;;;;;5054733;28;20526;-66
2022/11/05 01:52:51;;;;;;;1.65;1.52;;;16.50;67.20;;;;;;5054314;28;20294;-66
2022/11/05 01:55:21;;;;;;;2.10;1.63;;;16.50;67.20;;;;;;5054114;28;20183;-67
2022/11/05 01:57:47;;;;;;;1.55;1.45;;;16.40;67.00;;;;;;5054956;28;20183;-66
2022/11/05 02:00:14;;;;;;;2.10;1.70;;;16.40;67.00;;;;;;5055471;28;20198;-66
2022/11/05 02:02:40;;;;;;;3.10;1.55;;;16.40;67.10;;;;;;5055610;28;20585;-66
2022/11/05 02:05:06;;;;;;;1.95;1.58;;;16.40;67.00;;;;;;5053181;28;20631;-66
2022/11/05 02:07:31;;;;;;;2.17;1.70;;;16.40;67.10;;;;;;5054109;28;20179;-66
2022/11/05 02:10:07;;;;;;;1.60;1.50;;;16.40;67.00;;;;;;5053817;28;20202;-66
2022/11/05 02:12:33;;;;;;;1.85;1.27;;;16.40;67.10;;;;;;5052215;28;20249;-67
2022/11/05 02:14:58;;;;;;;1.88;1.77;;;16.40;67.00;;;;;;5053383;28;20261;-66
2022/11/05 02:17:50;;;;;;;1.70;1.58;;;16.40;67.00;;;;;;5055220;28;20183;-67
2022/11/05 02:20:17;;;;;;;1.88;1.63;;;16.40;67.00;;;;;;5053665;28;20171;-67
2022/11/05 02:23:37;;;;;;;2.67;1.80;;;16.40;67.00;;;;;;5054158;28;20175;-66
2022/11/05 02:26:21;;;;;;;1.75;1.45;;;16.30;67.00;;;;;;5031922;28;20184;-66
2022/11/05 02:28:53;;;;;;;2.13;1.42;;;16.30;67.00;;;;;;5050551;28;20626;-66
2022/11/05 02:31:27;;;;;;;2.22;1.75;;;16.30;66.90;;;;;;5054781;28;20214;-66
2022/11/05 02:33:59;;;;;;;1.77;1.30;;;16.30;66.90;;;;;;5054521;28;20175;-66
2022/11/05 02:36:24;;;;;;;1.70;1.60;;;16.30;66.90;;;;;;5053732;28;20270;-67
2022/11/05 02:39:22;;;;;;;1.50;1.40;;;16.30;67.00;;;;;;5054160;28;20254;-67
2022/11/05 02:42:09;;;;;;;1.58;1.20;;;16.30;66.90;;;;;;5036509;28;20194;-67
2022/11/05 02:44:43;;;;;;;3.03;1.50;;;16.30;66.90;;;;;;5053755;28;20215;-66
2022/11/05 02:47:30;;;;;;;2.63;2.03;;;16.30;66.90;;;;;;5052538;28;20182;-66
2022/11/05 02:50:18;;;;;;;3.28;1.33;;;16.30;66.90;;;;;;5054555;28;20175;-66
2022/11/05 02:53:01;;;;;;;1.77;1.17;;;16.30;66.90;;;;;;5053179;28;20226;-66
2022/11/05 02:55:35;;;;;;;1.58;1.42;;;16.30;66.80;;;;;;5053442;28;20175;-66
2022/11/05 02:58:03;;;;;;;1.27;1.17;;;16.20;66.70;;;;;;5052899;28;20178;-66
2022/11/05 03:00:49;;;;;;;1.70;1.48;;;16.20;66.70;;;;;;5053896;28;20176;-66
2022/11/05 03:03:22;;;;;;;2.03;1.20;;;16.20;66.70;;;;;;5054223;28;20175;-66
2022/11/05 03:06:01;;;;;;;1.58;1.27;;;16.20;66.70;;;;;;5054347;28;20209;-66
2022/11/05 03:08:36;;;;;;;1.17;1.10;;;16.20;66.60;;;;;;5052438;28;20207;-66
2022/11/05 03:11:13;;;;;;;1.40;1.30;;;16.20;66.70;;;;;;5054084;28;20289;-66
2022/11/05 03:13:58;;;;;;;1.52;1.42;;;16.20;66.70;;;;;;5053020;28;20191;-66
2022/11/05 03:16:34;;;;;;;1.30;1.20;;;16.20;66.60;;;;;;5052683;28;20250;-66
2022/11/05 03:19:07;;;;;;;1.48;1.10;;;16.20;66.60;;;;;;5052458;28;20693;-66
2022/11/05 03:21:47;;;;;;;1.55;1.45;;;16.20;66.50;;;;;;5052258;28;20175;-66
2022/11/05 03:24:25;;;;;;;1.55;1.45;;;16.20;66.50;;;;;;5053297;28;20181;-66
2022/11/05 03:27:03;;;;;;;1.35;1.20;;;16.20;66.50;;;;;;5052697;28;20185;-66
2022/11/05 03:29:37;;;;;;;1.10;1.00;;;16.20;67.40;;;;;;5051943;28;20628;-66
2022/11/05 03:32:02;;;;;;;2.45;1.73;;;16.20;66.50;;;;;;5052285;28;20701;-66
2022/11/05 03:34:35;;;;;;;1.63;1.50;;;16.20;66.50;;;;;;5052696;28;20260;-66
2022/11/05 03:37:01;;;;;;;2.20;1.27;;;16.10;66.40;;;;;;5051678;28;20186;-67
2022/11/05 03:39:54;;;;;;;1.23;1.13;;;16.10;66.50;;;;;;5052604;28;20163;-67
2022/11/05 03:42:22;;;;;;;1.40;1.30;;;16.10;66.50;;;;;;5051296;28;20721;-66
2022/11/05 03:44:49;;;;;;;1.20;1.10;;;16.10;66.50;;;;;;5052408;28;20175;-66
2022/11/05 03:47:18;;;;;;;1.33;1.23;;;16.10;66.50;;;;;;5051990;28;20175;-66
2022/11/05 03:50:18;;;;;;;1.27;1.13;;;16.10;66.50;;;;;;5051487;28;20592;-66
2022/11/05 03:52:58;;;;;;;2.38;1.50;;;16.10;66.50;;;;;;5052347;28;20210;-66
2022/11/05 03:55:25;;;;;;;1.38;1.25;;;16.10;67.30;;;;;;5052345;28;20258;-66
2022/11/05 03:57:51;;;;;;;2.42;1.25;;;16.10;66.50;;;;;;5051449;28;20175;-66
2022/11/05 04:00:17;;;;;;;1.50;1.40;;;16.10;66.40;;;;;;5051849;28;20182;-66
2022/11/05 04:02:42;;;;;;;1.38;1.27;;;16.10;66.50;;;;;;5053252;28;20626;-66
2022/11/05 04:05:08;;;;;;;1.20;1.20;;;16.10;66.50;;;;;;5052356;28;20262;-66
2022/11/05 04:18:29;;;;;;;1.48;1.20;;;16.10;66.60;;;;;;5052278;28;20338;-67
2022/11/05 04:26:24;;;;;;;2.10;1.40;;;16.00;66.40;;;;;;5052314;28;20182;-68
2022/11/05 04:31:34;;;;;;;1.10;1.05;;;16.00;66.40;;;;;;5052058;28;21045;-65
2022/11/05 04:33:59;;;;;;;1.52;1.20;;;16.00;66.40;;;;;;5052836;28;20175;-66
2022/11/05 04:36:25;;;;;;;1.30;1.20;;;16.00;66.40;;;;;;5052346;28;20179;-67
2022/11/05 04:38:50;;;;;;;1.40;1.30;;;16.00;66.50;;;;;;5052157;28;20175;-67
2022/11/05 04:41:16;;;;;;;1.30;1.20;;;16.00;66.50;;;;;;5052585;28;20328;-66
2022/11/05 04:43:42;;;;;;;2.22;1.23;;;16.00;66.40;;;;;;5052813;28;20183;-66
2022/11/05 04:46:07;;;;;;;1.35;1.23;;;16.00;66.40;;;;;;5051748;28;20188;-65
2022/11/05 04:48:33;;;;;;;1.23;1.13;;;16.00;66.40;;;;;;5052701;28;20175;-66
2022/11/05 04:50:58;;;;;;;2.42;1.40;;;16.00;66.40;;;;;;5052498;28;20549;-65
2022/11/05 04:53:24;;;;;;;1.95;1.40;;;16.00;66.40;;;;;;5051929;28;20664;-65
2022/11/05 04:55:49;;;;;;;1.60;1.50;;;16.00;66.40;;;;;;5052496;28;20175;-66
2022/11/05 04:58:15;;;;;;;1.50;1.20;;;16.00;66.40;;;;;;5052347;28;20175;-65
2022/11/05 05:00:41;;;;;;;1.40;1.30;;;16.00;66.40;;;;;;5051817;28;20264;-66
2022/11/05 05:03:06;;;;;;;1.50;1.40;;;16.00;66.40;;;;;;5052208;28;20194;-66
2022/11/05 05:05:32;;;;;;;1.13;1.10;;;15.90;66.40;;;;;;5052734;28;20171;-66
2022/11/05 05:08:04;;;;;;;1.23;1.10;;;15.90;66.40;;;;;;5051741;28;20183;-66
2022/11/05 05:10:29;;;;;;;1.30;1.20;;;15.90;66.40;;;;;;5053076;28;20202;-65
2022/11/05 05:12:55;;;;;;;1.42;1.33;;;15.90;66.40;;;;;;5052349;28;20693;-66
2022/11/05 05:15:21;;;;;;;1.20;1.10;;;15.90;66.40;;;;;;5051205;28;20218;-66
2022/11/05 05:17:50;;;;;;;1.23;1.20;;;15.90;66.40;;;;;;5052417;28;20194;-66
2022/11/05 05:23:00;;;;;;;1.45;1.08;;;15.90;66.40;;;;;;5052077;28;20190;-66
2022/11/05 05:25:26;;;;;;;1.60;1.50;;;15.90;66.40;;;;;;5052334;28;20163;-66
2022/11/05 05:27:51;;;;;;;1.77;1.27;;;15.90;66.40;;;;;;5051508;28;20178;-65
2022/11/05 05:30:17;;;;;;;1.40;1.30;;;15.90;66.40;;;;;;5051902;28;20167;-65
2022/11/05 05:32:42;;;;;;;1.33;1.23;;;15.90;66.30;;;;;;5052442;28;20224;-65
2022/11/05 05:35:08;;;;;;;1.60;1.50;;;15.90;66.30;;;;;;5051351;28;20682;-66
2022/11/05 05:37:34;;;;;;;2.03;1.38;;;15.90;66.30;;;;;;5052341;28;20540;-66
2022/11/05 05:39:59;;;;;;;1.17;1.08;;;15.90;66.30;;;;;;5051997;28;20173;-66
2022/11/05 05:42:25;;;;;;;1.25;1.15;;;15.90;66.30;;;;;;5051471;28;20542;-67
2022/11/05 05:44:50;;;;;;;1.35;1.25;;;15.90;66.30;;;;;;5052276;28;20660;-66
2022/11/05 05:47:16;;;;;;;1.27;1.17;;;15.90;66.30;;;;;;5054804;28;20206;-65
2022/11/05 05:49:41;;;;;;;1.27;0.90;;;15.80;67.10;;;;;;5055283;28;20182;-66
2022/11/05 05:52:07;;;;;;;0.90;0.90;;;15.90;66.30;;;;;;5055403;28;20280;-65
2022/11/05 05:54:32;;;;;;;1.40;1.30;;;15.80;66.20;;;;;;5055513;28;20217;-65
2022/11/05 05:56:58;;;;;;;1.20;1.10;;;15.80;66.20;;;;;;5054641;28;20603;-66
2022/11/05 05:59:23;;;;;;;1.60;1.00;;;15.80;66.20;;;;;;5055473;28;20630;-66
2022/11/05 06:01:49;;;;;;;1.25;1.15;;;15.80;66.20;;;;;;5055460;28;20179;-66
2022/11/05 06:04:14;;;;;;;1.35;1.25;;;15.90;66.30;;;;;;5054414;28;20163;-66
2022/11/05 06:06:40;;;;;;;1.20;1.10;;;15.80;67.30;;;;;;5055560;28;20185;-66
2022/11/05 06:09:05;;;;;;;1.27;1.10;;;15.90;66.70;;;;;;5054997;28;20182;-65
2022/11/05 06:11:31;;;;;;;1.45;1.13;;;15.90;65.90;;;;;;5055047;28;20260;-66
2022/11/05 06:13:56;;;;;;;1.38;1.15;;;15.90;65.80;;;;;;5055219;28;20167;-66
2022/11/05 06:16:22;;;;;;;1.08;0.90;;;16.00;65.40;;;;;;5055101;28;20237;-66
2022/11/05 06:18:47;;;;;;;1.48;1.00;;;16.10;65.20;;;;;;5053418;28;20197;-66
2022/11/05 06:21:15;;;;;;;1.02;1.00;;;16.10;65.00;;;;;;5055028;28;20175;-66
2022/11/05 06:23:41;;;;;;;1.30;1.20;;;16.20;64.90;;;;;;5055262;28;20195;-65
2022/11/05 06:26:12;;;;;;;1.52;1.00;;;16.20;64.80;;;;;;5054124;28;20183;-65
2022/11/05 06:28:38;;;;;;;1.30;1.25;;;16.20;64.70;;;;;;5055284;28;20178;-65
2022/11/05 06:31:03;;;;;;;1.10;1.00;;;16.20;64.80;;;;;;5054035;28;20202;-66
2022/11/05 06:33:29;;;;;;;1.48;1.05;;;16.10;64.90;;;;;;5054896;28;20273;-66
2022/11/05 06:35:57;;;;;;;1.10;1.05;;;16.10;65.00;;;;;;5055094;28;20171;-66
2022/11/05 06:38:23;;;;;;;1.23;1.13;;;16.10;65.30;;;;;;5054211;28;20593;-66
2022/11/05 06:40:48;;;;;;;1.15;1.08;;;16.10;65.40;;;;;;5054748;28;20175;-66
2022/11/05 06:43:14;;;;;;;1.30;1.20;;;16.10;65.60;;;;;;5054408;28;20175;-66
2022/11/05 06:45:39;;;;;;;1.08;1.08;;;16.10;65.60;;;;;;5054311;28;20171;-66
2022/11/05 06:48:05;;;;;;;1.15;1.10;;;16.00;65.30;;;;;;5054537;28;20182;-66
2022/11/05 06:50:30;;;;;;;1.30;1.20;;;16.00;65.40;;;;;;5054529;28;20179;-65
2022/11/05 06:53:00;;;;;;;1.25;1.15;;;16.00;65.30;;;;;;5053744;28;20211;-65
2022/11/05 06:55:26;;;;;;;1.35;1.25;;;16.00;65.50;;;;;;5054503;28;20258;-66
2022/11/05 06:57:52;;;;;;;1.23;1.13;;;16.00;65.50;;;;;;5053872;28;20206;-65
2022/11/05 07:00:18;;;;;;;2.10;1.13;;;15.90;65.50;;;;;;5053612;28;20659;-66
2022/11/05 07:02:44;;;;;;;2.80;1.50;;;15.90;65.60;;;;;;5054496;28;20636;-65
2022/11/05 07:05:10;;;;;;;1.30;1.20;;;15.90;65.60;;;;;;5054090;28;20175;-66
2022/11/05 07:07:36;;;;;;;1.10;1.10;;;15.90;65.50;;;;;;5053488;28;20634;-66
2022/11/05 07:10:04;;;;;;;1.20;1.10;;;16.00;65.40;;;;;;5053792;28;20206;-65
2022/11/05 07:12:29;;;;;;;1.20;1.10;;;16.10;65.00;;;;;;5053979;28;20214;-66
2022/11/05 07:14:55;;;;;;;1.30;1.20;;;16.20;64.90;;;;;;5053327;28;20215;-66
2022/11/05 07:17:21;;;;;;;1.05;1.02;;;16.30;64.80;;;;;;5053791;28;20171;-66
2022/11/05 07:19:46;;;;;;;1.30;1.20;;;16.40;64.40;;;;;;5054172;28;20167;-66
2022/11/05 07:22:12;;;;;;;1.40;1.20;;;16.50;64.10;;;;;;5052856;28;20585;-66
2022/11/05 07:24:37;;;;;;;1.50;1.30;;;16.60;64.00;;;;;;5053639;28;20211;-65
2022/11/05 07:27:03;;;;;;;1.10;1.10;;;16.60;63.80;;;;;;5053323;28;20209;-65
2022/11/05 07:29:28;;;;;;;1.00;1.00;;;16.70;63.90;;;;;;5053754;28;20259;-65
2022/11/05 07:31:54;;;;;;;1.08;1.00;;;16.80;63.80;;;;;;5053870;28;20246;-66
2022/11/05 07:34:20;;;;;;;1.83;1.10;;;16.90;63.40;;;;;;5052810;28;20266;-66
2022/11/05 07:36:45;;;;;;;1.50;1.40;;;17.10;63.30;;;;;;5053610;28;20214;-66
2022/11/05 07:39:11;;;;;;;1.85;1.30;;;17.20;62.90;;;;;;5053389;28;20175;-66
2022/11/05 07:41:36;;;;;;;1.30;1.10;;;17.40;62.60;;;;;;5053039;28;20179;-66
2022/11/05 07:44:02;;;;;;;1.20;1.10;;;17.70;62.10;;;;;;5053509;28;20175;-66
2022/11/05 07:46:28;;;;;;;1.20;1.10;;;18.00;61.40;;;;;;5053722;28;20254;-66
2022/11/05 07:48:54;;;;;;;1.25;1.10;;;18.20;60.80;;;;;;5052758;28;20695;-65
2022/11/05 07:51:19;;;;;;;1.58;1.17;;;18.40;60.30;;;;;;5053134;28;20246;-66
2022/11/05 07:53:47;;;;;;;1.35;1.17;;;18.50;60.00;;;;;;5053252;28;20266;-66
2022/11/05 07:56:13;;;;;;;1.67;1.30;;;18.60;59.80;;;;;;5052250;28;20171;-64
2022/11/05 07:58:38;;;;;;;2.00;1.75;;;18.70;59.60;;;;;;5053457;28;20191;-64
2022/11/05 08:01:05;;;;;;;2.35;1.45;;;18.70;59.40;;;;;;5053167;28;20178;-67
2022/11/05 08:03:31;;;;;;;3.45;1.60;;;18.70;59.40;;;;;;5052612;28;20197;-65
2022/11/05 08:05:57;;;;;;;4.55;1.70;;;18.60;59.60;;;;;;5053106;28;20697;-64
2022/11/05 08:08:22;;;;;;;11.65;1.95;;;18.50;59.70;;;;;;5053601;28;20253;-63
2022/11/05 08:10:48;;;;;;;2.95;1.60;;;18.40;59.70;;;;;;5052273;28;20692;-66
2022/11/05 08:13:13;;;;;;;4.93;2.33;;;18.30;59.80;;;;;;5052865;28;20189;-67
2022/11/05 08:15:39;;;;;;;3.97;1.80;;;18.30;59.90;;;;;;5052869;28;20238;-67
2022/11/05 08:18:15;;;;;;;4.20;1.92;;;18.20;59.80;;;;;;5052088;28;20184;-67
2022/11/05 08:20:41;;;;;;;3.25;1.75;;;18.20;59.80;;;;;;5052996;28;20166;-69
2022/11/05 08:23:07;;;;;;;4.15;1.83;;;18.10;60.00;;;;;;5052296;28;20179;-63
2022/11/05 08:25:32;;;;;;;3.78;1.88;;;18.10;60.30;;;;;;5052481;28;20186;-63
2022/11/05 08:27:59;;;;;;;3.28;1.70;;;18.10;60.30;;;;;;5052575;28;20767;-64
2022/11/05 08:30:25;;;;;;;2.15;1.50;;;18.10;60.40;;;;;;5052288;28;20183;-63
2022/11/05 08:32:51;;;;;;;11.68;1.77;;;18.20;60.40;;;;;;5052677;28;20210;-64
2022/11/05 08:35:17;;;;;;;5.85;2.25;;;18.30;60.40;;;;;;5051205;28;20583;-64
2022/11/05 08:37:42;;;;;;;3.35;1.90;;;18.30;60.40;;;;;;5052164;28;20175;-63
2022/11/05 08:40:08;;;;;;;7.35;1.50;;;18.40;60.40;;;;;;5052408;28;20614;-64
2022/11/05 08:42:34;;;;;;;1.95;1.50;;;18.40;60.60;;;;;;5052789;28;20250;-62
2022/11/05 08:44:59;;;;;;;2.50;1.42;;;18.40;60.70;;;;;;5051828;28;20174;-62
2022/11/05 08:47:25;;;;;;;2.65;1.65;;;18.30;60.90;;;;;;5052626;28;20540;-62
2022/11/05 08:49:51;;;;;;;2.72;1.50;;;18.30;61.10;;;;;;5052608;28;20167;-63
2022/11/05 08:52:16;;;;;;;4.20;1.77;;;18.30;61.30;;;;;;5051439;28;20203;-64
2022/11/05 08:54:42;;;;;;;3.10;1.80;;;18.20;61.50;;;;;;5052642;28;20175;-65
2022/11/05 08:57:08;;;;;;;1.73;1.35;;;18.20;61.70;;;;;;5052367;28;20607;-66
2022/11/05 08:59:33;;;;;;;3.42;1.42;;;18.20;61.90;;;;;;5051921;28;20638;-62
2022/11/05 09:01:59;;;;;;;4.60;1.70;;;18.20;62.10;;;;;;5052348;28;20187;-62
2022/11/05 09:04:24;;;;;;;4.05;1.67;;;18.10;62.20;;;;;;5052464;28;20170;-64
2022/11/05 09:06:50;;;;;;;4.20;1.90;;;18.10;62.40;;;;;;5051715;28;20718;-63
2022/11/05 09:09:15;;;;;;;4.15;2.50;;;18.00;62.50;;;;;;5052303;28;20538;-68
2022/11/05 09:11:41;;;;;;;3.72;1.83;;;18.00;62.70;;;;;;5052141;28;20700;-69
2022/11/05 09:14:06;;;;;;;3.38;2.10;;;18.00;63.10;;;;;;5051817;28;20175;-67
2022/11/05 09:16:33;;;;;;;2.85;1.67;;;18.00;64.00;;;;;;5052162;28;20611;-68
2022/11/05 09:18:59;;;;;;;2.63;1.40;;;18.00;64.20;;;;;;5052110;28;20641;-67
2022/11/05 09:21:24;;;;;;;3.35;1.83;;;17.90;63.30;;;;;;5053136;28;20179;-67
2022/11/05 09:23:50;;;;;;;3.88;1.88;;;17.90;63.40;;;;;;5056444;28;20174;-67
2022/11/05 09:26:15;;;;;;;5.30;1.83;;;17.90;63.50;;;;;;5056084;28;20626;-67
2022/11/05 09:28:42;;;;;;;2.30;1.80;;;17.90;63.60;;;;;;5055408;28;20175;-67
2022/11/05 09:31:08;;;;;;;2.72;1.60;;;17.90;63.70;;;;;;5055818;28;20190;-67
2022/11/05 09:33:35;;;;;;;2.60;1.50;;;18.00;63.80;;;;;;5056092;28;20183;-68
2022/11/05 09:36:00;;;;;;;3.28;1.67;;;18.00;63.70;;;;;;5054944;28;20176;-67
2022/11/05 09:38:26;;;;;;;3.35;2.08;;;18.00;63.70;;;;;;5055916;28;20265;-67
2022/11/05 09:41:00;;;;;;;3.55;1.80;;;18.10;63.70;;;;;;5055182;28;20183;-67
2022/11/05 09:43:29;;;;;;;3.95;1.70;;;18.00;63.70;;;;;;5054698;28;20664;-67
2022/11/05 09:45:56;;;;;;;3.83;1.60;;;18.00;63.80;;;;;;5055870;28;20225;-67
2022/11/05 09:48:23;;;;;;;2.75;1.42;;;18.00;63.90;;;;;;5037394;28;20215;-67
2022/11/05 09:50:49;;;;;;;2.67;1.58;;;17.90;64.00;;;;;;5054754;28;20229;-67
2022/11/05 09:53:16;;;;;;;2.42;1.60;;;17.90;64.20;;;;;;5054318;28;20210;-67
2022/11/05 09:55:45;;;;;;;2.00;1.65;;;17.80;64.30;;;;;;5055087;28;20178;-67
2022/11/05 09:58:37;;;;;;;3.85;1.65;;;17.80;64.40;;;;;;5038058;28;20186;-68
2022/11/05 10:01:05;;;;;;;2.95;1.90;;;17.80;64.40;;;;;;5051986;28;20199;-67
2022/11/05 10:03:30;;;;;;;1.90;1.60;;;17.70;64.50;;;;;;5053782;28;20190;-67
2022/11/05 10:06:06;;;;;;;3.95;1.50;;;17.70;64.50;;;;;;5037983;28;20171;-67
2022/11/05 10:08:33;;;;;;;2.90;1.67;;;17.70;64.60;;;;;;5054388;28;20179;-66
2022/11/05 10:11:21;;;;;;;2.35;1.33;;;17.60;64.60;;;;;;5036742;28;20179;-67
2022/11/05 10:13:51;;;;;;;3.45;2.25;;;17.60;64.70;;;;;;5038087;28;20222;-67
2022/11/05 10:16:22;;;;;;;2.08;1.58;;;17.60;64.80;;;;;;5036975;28;20235;-67
2022/11/05 10:18:52;;;;;;;3.33;1.50;;;17.60;64.80;;;;;;5054101;28;20579;-69
2022/11/05 10:21:18;;;;;;;1.67;1.30;;;17.60;64.80;;;;;;5037672;28;20164;-69
2022/11/05 10:23:44;;;;;;;3.03;1.80;;;17.60;64.90;;;;;;5054327;28;20209;-69
2022/11/05 10:26:12;;;;;;;1.90;1.63;;;17.60;64.90;;;;;;5054979;28;20179;-69
2022/11/05 10:28:38;;;;;;;1.92;1.42;;;17.60;64.90;;;;;;5037756;28;20175;-69
2022/11/05 10:31:08;;;;;;;1.60;1.30;;;17.50;65.00;;;;;;5053814;28;20210;-69
2022/11/05 10:33:47;;;;;;;1.60;1.40;;;17.60;65.00;;;;;;5036495;28;20185;-69
2022/11/05 10:36:27;;;;;;;1.70;1.50;;;17.60;65.00;;;;;;5053402;28;20181;-67
2022/11/05 10:38:56;;;;;;;1.80;1.48;;;17.60;64.90;;;;;;5054414;28;20175;-67
2022/11/05 10:41:40;;;;;;;1.90;1.58;;;17.60;64.90;;;;;;5037538;28;20186;-67
2022/11/05 10:44:22;;;;;;;1.60;1.50;;;17.60;64.90;;;;;;5053719;28;20175;-66
2022/11/05 10:47:09;;;;;;;1.70;1.45;;;17.60;64.90;;;;;;5054690;28;20258;-66
2022/11/05 10:49:58;;;;;;;1.73;1.35;;;17.50;64.90;;;;;;5053761;28;20173;-66
2022/11/05 10:52:50;;;;;;;2.67;1.48;;;17.50;65.00;;;;;;5052919;28;20290;-66
2022/11/05 10:55:28;;;;;;;2.60;1.30;;;17.50;64.90;;;;;;5052959;28;20202;-66
2022/11/05 10:57:53;;;;;;;2.33;1.77;;;17.50;64.90;;;;;;5038242;28;20198;-66
2022/11/05 11:00:20;;;;;;;1.60;1.50;;;17.50;65.00;;;;;;5053648;28;20175;-66
2022/11/05 11:03:00;;;;;;;2.55;1.55;;;17.40;65.00;;;;;;5054572;28;20182;-66
2022/11/05 11:05:26;;;;;;;2.70;1.92;;;17.50;65.10;;;;;;5052416;28;20179;-67
2022/11/05 11:07:59;;;;;;;2.45;1.55;;;17.40;65.10;;;;;;5054272;28;20198;-67
2022/11/05 11:10:25;;;;;;;2.13;1.80;;;17.40;65.20;;;;;;5037125;28;20186;-66
2022/11/05 11:12:50;;;;;;;1.63;1.52;;;17.40;65.20;;;;;;5053362;28;20566;-67
2022/11/05 11:15:19;;;;;;;2.00;1.70;;;17.40;65.20;;;;;;5052619;28;20219;-66
2022/11/05 11:17:44;;;;;;;2.80;1.60;;;17.30;65.20;;;;;;5054112;28;20209;-67
2022/11/05 11:20:18;;;;;;;3.38;1.50;;;17.40;65.30;;;;;;5052975;28;20209;-66
2022/11/05 11:23:08;;;;;;;1.55;1.45;;;17.30;65.30;;;;;;5053118;28;20178;-66
2022/11/05 11:25:55;;;;;;;1.65;1.40;;;17.30;65.30;;;;;;5037003;28;20171;-67
2022/11/05 11:28:23;;;;;;;1.48;1.38;;;17.30;65.40;;;;;;5051610;28;20205;-67
2022/11/05 11:30:55;;;;;;;2.55;1.42;;;17.30;65.40;;;;;;5052893;28;20341;-66
2022/11/05 11:33:22;;;;;;;2.70;1.90;;;17.30;65.40;;;;;;5052157;28;20195;-67
2022/11/05 11:35:47;;;;;;;2.22;1.45;;;17.30;65.40;;;;;;5036364;28;20174;-67
2022/11/05 11:38:14;;;;;;;1.70;1.33;;;17.30;65.40;;;;;;5035620;28;20178;-67
2022/11/05 11:40:39;;;;;;;1.63;1.52;;;17.30;65.40;;;;;;5051805;28;20241;-67
2022/11/05 11:43:43;;;;;;;1.60;1.50;;;17.20;65.30;;;;;;5052249;28;20755;-67
2022/11/05 11:46:18;;;;;;;3.00;1.98;;;17.20;65.40;;;;;;5031220;28;20187;-67
2022/11/05 11:48:46;;;;;;;1.92;1.75;;;17.30;65.40;;;;;;5049867;28;20569;-67
2022/11/05 11:51:28;;;;;;;2.30;1.48;;;17.30;65.20;;;;;;5053107;28;20207;-67
2022/11/05 11:53:58;;;;;;;1.50;1.40;;;17.30;65.10;;;;;;5053725;28;20179;-67
2022/11/05 11:56:23;;;;;;;2.17;1.40;;;17.30;65.00;;;;;;5052654;28;20175;-67
2022/11/05 11:58:53;;;;;;;1.58;1.30;;;17.40;65.10;;;;;;5053523;28;20179;-67
2022/11/05 12:01:31;;;;;;;1.60;1.42;;;17.30;65.10;;;;;;5052131;28;20270;-67
2022/11/05 12:04:27;;;;;;;3.22;1.50;;;17.30;65.00;;;;;;5053212;28;20179;-67
2022/11/05 12:07:11;;;;;;;2.97;1.60;;;17.30;65.10;;;;;;5053372;28;20179;-67
2022/11/05 12:09:49;;;;;;;1.98;1.60;;;17.30;65.10;;;;;;5052534;28;20233;-67
2022/11/05 12:12:15;;;;;;;2.28;1.60;;;17.30;65.10;;;;;;5051713;28;20210;-67
2022/11/05 12:14:52;;;;;;;1.50;1.40;;;17.30;65.10;;;;;;5051913;28;20201;-67
2022/11/05 12:17:24;;;;;;;1.52;1.42;;;17.30;65.90;;;;;;5052157;28;20651;-67
2022/11/05 12:20:03;;;;;;;1.60;1.50;;;17.30;65.00;;;;;;5053247;28;20178;-67
2022/11/05 12:22:37;;;;;;;2.00;1.63;;;17.30;65.00;;;;;;5052774;28;20203;-67
2022/11/05 12:25:17;;;;;;;1.38;1.20;;;17.30;65.00;;;;;;5051697;28;20171;-67
2022/11/05 12:27:59;;;;;;;1.77;1.58;;;17.30;64.90;;;;;;5053175;28;20175;-67
2022/11/05 12:30:24;;;;;;;2.28;1.13;;;17.30;65.00;;;;;;5051144;28;20179;-67
2022/11/05 12:33:11;;;;;;;2.13;1.33;;;17.30;65.10;;;;;;5035010;28;20221;-67
2022/11/05 12:36:14;;;;;;;2.00;1.67;;;17.30;65.10;;;;;;5052010;28;20190;-67
2022/11/05 12:38:45;;;;;;;2.90;1.60;;;17.30;65.10;;;;;;5040764;28;20233;-68
2022/11/05 12:41:28;;;;;;;1.65;1.50;;;17.20;65.10;;;;;;5052451;28;20691;-67
2022/11/05 12:44:06;;;;;;;1.42;1.33;;;17.20;65.10;;;;;;5035266;28;20193;-67
2022/11/05 12:46:55;;;;;;;2.13;1.27;;;17.20;65.00;;;;;;5052864;28;20183;-67
2022/11/05 12:49:53;;;;;;;1.60;1.50;;;17.20;65.00;;;;;;5051353;28;20641;-67
2022/11/05 12:52:26;;;;;;;1.48;1.38;;;17.20;65.10;;;;;;5043961;28;20276;-67
2022/11/05 12:55:24;;;;;;;1.70;1.45;;;17.20;65.10;;;;;;5051555;28;20179;-67
2022/11/05 12:57:52;;;;;;;1.45;1.30;;;17.20;65.00;;;;;;5043505;28;20237;-67
2022/11/05 13:00:22;;;;;;;1.80;1.58;;;17.20;65.10;;;;;;5055410;28;20179;-67
2022/11/05 13:03:08;;;;;;;2.00;1.55;;;17.20;65.20;;;;;;5055439;28;20556;-67
2022/11/05 13:06:11;;;;;;;1.40;1.27;;;17.20;65.00;;;;;;5055065;28;20167;-67
2022/11/05 13:08:43;;;;;;;2.15;1.50;;;17.10;65.10;;;;;;5022812;28;20179;-67
2022/11/05 13:11:18;;;;;;;1.50;1.40;;;17.20;65.00;;;;;;5048522;28;20595;-67
2022/11/05 13:14:03;;;;;;;1.33;1.23;;;17.20;64.90;;;;;;5038743;28;20182;-67
2022/11/05 13:16:37;;;;;;;2.20;1.20;;;17.30;64.90;;;;;;5055096;28;20223;-67
2022/11/05 13:19:24;;;;;;;2.00;1.52;;;17.20;64.80;;;;;;5054387;28;20218;-67
2022/11/05 13:22:09;;;;;;;2.50;1.55;;;17.30;64.80;;;;;;5039131;28;20187;-67
2022/11/05 13:24:45;;;;;;;2.08;1.50;;;17.20;64.80;;;;;;5055326;28;20232;-67
2022/11/05 13:27:17;;;;;;;1.80;1.55;;;17.20;64.90;;;;;;5038576;28;20553;-67
2022/11/05 13:29:47;;;;;;;1.40;1.30;;;17.30;65.00;;;;;;5055259;28;20163;-67
2022/11/05 13:32:21;;;;;;;3.55;1.58;;;17.20;64.90;;;;;;5054684;28;20221;-69
2022/11/05 13:34:47;;;;;;;2.15;1.40;;;17.20;64.90;;;;;;5054387;28;20175;-66
2022/11/05 13:40:07;;;;;;;1.67;1.40;;;17.20;64.90;;;;;;5041155;28;20181;-67
2022/11/05 13:43:05;;;;;;;1.50;1.40;;;17.30;64.80;;;;;;5054929;28;20183;-66
2022/11/05 13:45:59;;;;;;;2.13;1.50;;;17.30;64.80;;;;;;5054690;28;20175;-66
2022/11/05 13:49:05;;;;;;;2.65;1.40;;;17.30;64.80;;;;;;5054081;28;20189;-67
2022/11/05 13:51:45;;;;;;;2.30;1.52;;;17.20;64.80;;;;;;5054535;28;20206;-69
2022/11/05 13:54:48;;;;;;;1.75;1.50;;;17.20;64.80;;;;;;5038067;28;20175;-69